createdAt,value
2022-08-07T00:02:39.910Z,1.20
2022-08-07T00:05:10.246Z,1.20
2022-08-07T00:07:41.721Z,1.10
2022-08-07T00:10:27.028Z,1.00
2022-08-07T00:15:50.966Z,1.00
2022-08-07T00:18:35.656Z,1.10
2022-08-07T00:21:55.437Z,1.20
2022-08-07T00:23:58.547Z,0.80
2022-08-07T00:26:49.565Z,1.03
2022-08-07T00:29:23.387Z,0.93
2022-08-07T00:31:56.602Z,1.00
2022-08-07T00:34:33.068Z,0.90
2022-08-07T00:37:06.092Z,1.00
2022-08-07T00:39:38.307Z,1.00
2022-08-07T00:42:15.603Z,1.03
2022-08-07T00:44:46.640Z,1.10
2022-08-07T00:48:08.259Z,0.90
2022-08-07T00:50:33.070Z,1.10
2022-08-07T00:53:14.633Z,0.90
2022-08-07T00:56:02.383Z,1.00
2022-08-07T00:58:40.372Z,0.80
2022-08-07T01:01:15.168Z,0.97
2022-08-07T01:03:55.928Z,0.80
2022-08-07T01:06:32.246Z,1.10
2022-08-07T01:09:04.482Z,1.00
2022-08-07T01:12:23.537Z,0.90
2022-08-07T01:14:36.983Z,0.90
2022-08-07T01:17:08.411Z,1.10
2022-08-07T01:19:52.356Z,0.80
2022-08-07T01:22:29.227Z,0.90
2022-08-07T01:24:59.118Z,0.90
2022-08-07T01:27:33.406Z,0.90
2022-08-07T01:30:06.032Z,0.80
2022-08-07T01:32:47.916Z,0.70
2022-08-07T01:35:19.689Z,0.80
2022-08-07T01:37:56.322Z,0.90
2022-08-07T01:40:30.138Z,0.80
2022-08-07T01:43:00.944Z,0.93
2022-08-07T01:45:40.103Z,0.87
2022-08-07T01:48:20.371Z,0.70
2022-08-07T01:51:24.435Z,0.80
2022-08-07T01:54:12.008Z,0.80
2022-08-07T01:56:59.462Z,0.90
2022-08-07T01:59:58.022Z,0.70
2022-08-07T02:03:12.044Z,0.80
2022-08-07T02:08:23.808Z,1.00
2022-08-07T02:10:59.540Z,0.80
2022-08-07T02:13:59.849Z,0.97
2022-08-07T02:16:33.250Z,0.80
2022-08-07T02:20:04.499Z,0.67
2022-08-07T02:22:07.881Z,0.60
2022-08-07T02:24:44.535Z,0.80
2022-08-07T02:27:24.385Z,0.80
2022-08-07T02:29:55.295Z,0.93
2022-08-07T02:32:27.167Z,0.80
2022-08-07T02:35:00.974Z,0.80
2022-08-07T02:37:36.064Z,0.80
2022-08-07T02:40:30.919Z,0.60
2022-08-07T02:43:07.731Z,0.70
2022-08-07T02:45:58.571Z,0.77
2022-08-07T02:48:34.485Z,0.70
2022-08-07T02:51:07.326Z,0.90
2022-08-07T02:54:05.725Z,0.70
2022-08-07T02:56:40.755Z,0.77
2022-08-07T02:59:16.850Z,0.70
2022-08-07T03:01:52.222Z,0.70
2022-08-07T03:04:24.782Z,0.80
2022-08-07T03:06:58.223Z,0.80
2022-08-07T03:09:43.496Z,0.70
2022-08-07T03:12:22.555Z,0.90
2022-08-07T03:15:07.748Z,0.73
2022-08-07T03:17:53.369Z,0.80
2022-08-07T03:20:26.597Z,0.70
2022-08-07T03:22:58.623Z,0.80
2022-08-07T03:25:32.457Z,0.83
2022-08-07T03:28:36.966Z,0.80
2022-08-07T03:31:24.658Z,0.90
2022-08-07T03:34:07.871Z,1.00
2022-08-07T03:36:43.167Z,0.80
2022-08-07T03:39:16.970Z,0.60
2022-08-07T03:41:50.791Z,0.90
2022-08-07T03:44:34.264Z,0.70
2022-08-07T03:47:11.323Z,0.70
2022-08-07T03:49:47.986Z,0.77
2022-08-07T03:52:27.598Z,0.70
2022-08-07T03:55:07.151Z,0.60
2022-08-07T03:59:07.457Z,0.80
2022-08-07T04:00:33.671Z,0.70
2022-08-07T04:03:06.045Z,0.80
2022-08-07T04:05:45.521Z,0.80
2022-08-07T04:08:21.341Z,0.90
2022-08-07T04:12:20.913Z,0.97
2022-08-07T04:14:32.948Z,0.70
2022-08-07T04:16:58.705Z,0.70
2022-08-07T04:19:50.959Z,0.80
2022-08-07T04:22:23.093Z,0.77
2022-08-07T04:24:53.536Z,0.73
2022-08-07T04:27:25.866Z,0.87
2022-08-07T04:30:02.735Z,0.70
2022-08-07T04:32:37.374Z,0.87
2022-08-07T04:35:11.583Z,0.70
2022-08-07T04:38:03.368Z,0.80
2022-08-07T04:40:52.043Z,0.60
2022-08-07T04:44:13.207Z,0.77
2022-08-07T04:47:04.290Z,0.90
2022-08-07T04:50:04.063Z,0.70
2022-08-07T04:53:06.939Z,0.87
2022-08-07T04:58:15.667Z,0.60
2022-08-07T05:00:09.018Z,0.70
2022-08-07T05:02:20.545Z,0.80
2022-08-07T05:05:03.174Z,0.73
2022-08-07T05:08:59.390Z,0.77
2022-08-07T05:11:57.578Z,0.90
2022-08-07T05:14:56.350Z,0.90
2022-08-07T05:17:52.293Z,0.70
2022-08-07T05:20:36.035Z,1.00
2022-08-07T05:26:13.722Z,0.70
2022-08-07T05:28:48.663Z,0.60
2022-08-07T05:31:23.037Z,0.90
2022-08-07T05:34:04.766Z,0.90
2022-08-07T05:36:56.346Z,0.73
2022-08-07T05:40:05.392Z,1.10
2022-08-07T05:42:33.785Z,0.80
2022-08-07T05:45:28.172Z,0.90
2022-08-07T05:48:08.265Z,1.00
2022-08-07T05:50:43.350Z,0.90
2022-08-07T05:54:08.479Z,1.00
2022-08-07T05:56:05.817Z,1.00
2022-08-07T05:58:37.796Z,1.13
2022-08-07T06:01:10.578Z,1.00
2022-08-07T06:03:53.848Z,0.80
2022-08-07T06:06:35.500Z,1.03
2022-08-07T06:09:06.359Z,1.00
2022-08-07T06:11:38.570Z,1.00
2022-08-07T06:14:20.849Z,1.00
2022-08-07T06:16:56.336Z,0.90
2022-08-07T06:19:52.318Z,1.20
2022-08-07T06:22:39.082Z,1.10
2022-08-07T06:25:10.148Z,1.00
2022-08-07T06:27:43.911Z,1.30
2022-08-07T06:30:37.473Z,1.20
2022-08-07T06:33:15.720Z,1.10
2022-08-07T06:36:06.881Z,0.93
2022-08-07T06:38:58.496Z,1.10
2022-08-07T06:42:00.751Z,1.10
2022-08-07T06:44:40.828Z,1.30
2022-08-07T06:47:12.541Z,1.20
2022-08-07T06:49:58.851Z,1.40
2022-08-07T06:52:52.768Z,1.30
2022-08-07T06:55:53.832Z,1.30
2022-08-07T06:58:32.130Z,1.13
2022-08-07T07:01:08.502Z,1.13
2022-08-07T07:03:49.889Z,1.30
2022-08-07T07:06:26.501Z,1.60
2022-08-07T07:09:10.588Z,1.07
2022-08-07T07:12:09.565Z,1.13
2022-08-07T07:15:26.252Z,1.20
2022-08-07T07:18:11.087Z,1.43
2022-08-07T07:20:52.544Z,1.40
2022-08-07T07:24:09.335Z,1.50
2022-08-07T07:26:34.706Z,1.30
2022-08-07T07:29:57.506Z,1.50
2022-08-07T07:32:05.526Z,1.50
2022-08-07T07:35:00.577Z,1.77
2022-08-07T07:37:49.604Z,1.73
2022-08-07T07:40:28.473Z,1.57
2022-08-07T07:43:11.531Z,1.50
2022-08-07T07:46:40.066Z,1.60
2022-08-07T07:48:36.903Z,1.50
2022-08-07T07:51:27.479Z,1.40
2022-08-07T07:54:16.484Z,1.40
2022-08-07T07:56:55.117Z,1.60
2022-08-07T07:59:52.591Z,1.50
2022-08-07T08:02:34.044Z,1.30
2022-08-07T08:05:14.162Z,1.53
2022-08-07T08:07:51.582Z,1.60
2022-08-07T08:10:37.595Z,1.50
2022-08-07T08:13:10.292Z,1.30
2022-08-07T08:15:58.946Z,1.30
2022-08-07T08:18:38.401Z,1.30
2022-08-07T08:21:55.830Z,1.30
2022-08-07T08:24:54.830Z,1.50
2022-08-07T08:27:44.030Z,1.53
2022-08-07T08:30:32.149Z,1.53
2022-08-07T08:33:15.074Z,1.60
2022-08-07T08:35:58.708Z,1.40
2022-08-07T08:38:41.346Z,1.40
2022-08-07T08:41:56.759Z,1.50
2022-08-07T08:44:48.698Z,1.50
2022-08-07T08:47:52.474Z,1.90
2022-08-07T08:50:39.306Z,1.30
2022-08-07T08:53:44.474Z,1.50
2022-08-07T08:56:35.096Z,1.30
2022-08-07T08:59:23.261Z,1.70
2022-08-07T09:02:18.345Z,1.60
2022-08-07T09:05:37.360Z,1.53
2022-08-07T09:08:28.101Z,1.60
2022-08-07T09:11:24.524Z,1.33
2022-08-07T09:14:32.147Z,1.30
2022-08-07T09:20:35.804Z,1.30
2022-08-07T09:24:31.402Z,1.20
2022-08-07T09:26:27.612Z,1.30
2022-08-07T09:30:02.337Z,1.10
2022-08-07T09:32:18.559Z,1.27
2022-08-07T09:36:00.950Z,1.00
2022-08-07T09:38:13.543Z,1.10
2022-08-07T09:41:01.881Z,1.20
2022-08-07T09:44:05.792Z,1.30
2022-08-07T09:47:50.207Z,1.10
2022-08-07T09:50:21.441Z,1.30
2022-08-07T09:52:54.216Z,1.50
2022-08-07T09:56:03.534Z,1.27
2022-08-07T09:58:33.741Z,1.40
2022-08-07T10:01:14.696Z,1.27
2022-08-07T10:04:14.918Z,1.10
2022-08-07T10:07:05.404Z,1.10
2022-08-07T10:10:22.710Z,0.90
2022-08-07T10:15:57.300Z,1.10
2022-08-07T10:18:44.132Z,1.27
2022-08-07T10:22:14.587Z,1.37
2022-08-07T10:24:40.084Z,1.00
2022-08-07T10:27:26.234Z,1.00
2022-08-07T10:30:13.085Z,1.10
2022-08-07T10:33:02.347Z,0.93
2022-08-07T10:36:05.515Z,1.13
2022-08-07T10:38:57.210Z,1.27
2022-08-07T10:41:52.223Z,1.10
2022-08-07T10:44:38.260Z,1.00
2022-08-07T10:47:51.289Z,1.30
2022-08-07T10:50:32.631Z,1.00
2022-08-07T10:53:21.385Z,1.00
2022-08-07T10:56:30.881Z,1.00
2022-08-07T10:59:06.750Z,1.03
2022-08-07T11:02:04.775Z,1.20
2022-08-07T11:10:57.943Z,1.20
2022-08-07T11:14:45.534Z,1.00
2022-08-07T11:19:21.824Z,1.30
2022-08-07T11:22:26.331Z,1.13
2022-08-07T11:25:20.310Z,1.20
2022-08-07T11:28:15.291Z,1.10
2022-08-07T11:31:23.620Z,1.30
2022-08-07T11:34:10.297Z,1.40
2022-08-07T11:36:57.481Z,1.30
2022-08-07T11:40:00.087Z,1.30
2022-08-07T11:42:43.355Z,1.30
2022-08-07T11:45:40.671Z,1.30
2022-08-07T11:48:32.286Z,1.23
2022-08-07T11:51:45.037Z,1.30
2022-08-07T11:54:28.015Z,1.20
2022-08-07T11:57:16.173Z,1.10
2022-08-07T12:00:10.405Z,1.10
2022-08-07T12:03:06.147Z,1.23
2022-08-07T12:06:39.165Z,1.40
2022-08-07T12:09:16.080Z,1.40
2022-08-07T12:12:13.518Z,1.30
2022-08-07T12:15:17.248Z,1.30
2022-08-07T12:18:12.918Z,1.13
2022-08-07T12:20:56.715Z,1.30
2022-08-07T12:24:05.561Z,1.43
2022-08-07T12:29:40.445Z,1.40
2022-08-07T12:32:19.367Z,1.50
2022-08-07T12:34:56.253Z,1.33
2022-08-07T12:38:09.150Z,1.43
2022-08-07T12:40:46.769Z,1.20
2022-08-07T12:44:02.485Z,1.20
2022-08-07T12:46:32.798Z,1.80
2022-08-07T12:49:44.709Z,1.50
2022-08-07T12:52:18.178Z,1.40
2022-08-07T12:55:16.457Z,1.23
2022-08-07T12:58:00.461Z,1.40
2022-08-07T13:00:54.006Z,1.30
2022-08-07T13:04:02.150Z,1.30
2022-08-07T13:07:01.875Z,1.20
2022-08-07T13:10:37.797Z,1.20
2022-08-07T13:12:59.601Z,1.57
2022-08-07T13:15:33.300Z,1.50
2022-08-07T13:18:26.235Z,1.43
2022-08-07T13:21:37.216Z,1.20
2022-08-07T13:24:29.316Z,1.30
2022-08-07T13:30:03.615Z,1.50
2022-08-07T13:32:50.170Z,1.47
2022-08-07T13:36:00.333Z,1.53
2022-08-07T13:38:35.248Z,1.40
2022-08-07T13:41:11.907Z,1.40
2022-08-07T13:43:45.165Z,1.30
2022-08-07T13:46:30.047Z,1.40
2022-08-07T13:49:08.901Z,1.33
2022-08-07T13:52:22.201Z,1.57
2022-08-07T13:54:55.085Z,1.20
2022-08-07T13:57:32.147Z,1.20
2022-08-07T14:00:26.276Z,1.20
2022-08-07T14:05:43.297Z,1.30
2022-08-07T14:08:20.323Z,1.50
2022-08-07T14:11:14.653Z,1.50
2022-08-07T14:13:48.796Z,1.40
2022-08-07T14:16:26.853Z,1.30
2022-08-07T14:19:02.843Z,1.43
2022-08-07T14:22:04.027Z,1.40
2022-08-07T14:24:41.405Z,1.30
2022-08-07T14:27:16.242Z,1.30
2022-08-07T14:32:56.655Z,1.53
2022-08-07T14:35:45.558Z,1.30
2022-08-07T14:38:26.110Z,1.20
2022-08-07T14:41:03.975Z,1.17
2022-08-07T14:43:58.739Z,1.20
2022-08-07T14:46:32.549Z,1.60
2022-08-07T14:49:55.948Z,1.20
2022-08-07T14:52:10.483Z,1.17
2022-08-07T14:54:45.512Z,1.20
2022-08-07T14:57:19.712Z,1.40
2022-08-07T15:00:06.187Z,1.30
2022-08-07T15:02:39.759Z,1.27
2022-08-07T15:05:20.187Z,1.40
2022-08-07T15:07:52.198Z,1.30
2022-08-07T15:10:26.486Z,1.37
2022-08-07T15:13:20.595Z,1.50
2022-08-07T15:15:54.426Z,1.40
2022-08-07T15:18:35.633Z,1.23
2022-08-07T15:21:45.168Z,1.40
2022-08-07T15:25:13.027Z,1.40
2022-08-07T15:27:17.221Z,1.20
2022-08-07T15:30:06.419Z,1.33
2022-08-07T15:33:01.384Z,1.33
2022-08-07T15:36:01.843Z,1.50
2022-08-07T15:38:59.099Z,1.20
2022-08-07T15:42:43.703Z,1.30
2022-08-07T15:44:20.546Z,1.30
2022-08-07T15:47:03.580Z,1.50
2022-08-07T15:52:51.674Z,1.20
2022-08-07T15:55:24.658Z,1.13
2022-08-07T15:58:20.897Z,1.67
2022-08-07T16:00:54.950Z,1.37
2022-08-07T16:03:47.313Z,1.33
2022-08-07T16:06:30.670Z,1.40
2022-08-07T16:09:07.646Z,1.63
2022-08-07T16:11:56.894Z,1.43
2022-08-07T16:14:44.377Z,1.20
2022-08-07T16:18:01.740Z,1.30
2022-08-07T16:21:43.058Z,1.30
2022-08-07T16:23:53.646Z,1.50
2022-08-07T16:26:36.228Z,1.67
2022-08-07T16:29:18.814Z,1.40
2022-08-07T16:32:36.071Z,1.30
2022-08-07T16:35:51.554Z,1.20
2022-08-07T16:38:09.515Z,1.40
2022-08-07T16:41:02.214Z,1.40
2022-08-07T16:44:04.264Z,1.30
2022-08-07T16:47:04.884Z,1.43
2022-08-07T16:50:29.198Z,1.30
2022-08-07T16:53:15.046Z,1.40
2022-08-07T16:56:07.413Z,1.23
2022-08-07T16:59:10.828Z,1.20
2022-08-07T17:02:02.895Z,1.30
2022-08-07T17:04:57.830Z,1.47
2022-08-07T17:07:55.600Z,1.30
2022-08-07T17:13:18.784Z,1.60
2022-08-07T17:18:52.804Z,1.40
2022-08-07T17:21:51.414Z,1.30
2022-08-07T17:24:38.574Z,1.17
2022-08-07T17:27:29.001Z,1.33
2022-08-07T17:30:15.893Z,1.20
2022-08-07T17:34:10.311Z,1.40
2022-08-07T17:36:13.731Z,1.40
2022-08-07T17:38:52.462Z,1.47
2022-08-07T17:42:04.207Z,1.43
2022-08-07T17:44:55.533Z,1.40
2022-08-07T17:47:54.589Z,1.50
2022-08-07T17:50:42.320Z,1.40
2022-08-07T17:54:02.046Z,1.70
2022-08-07T17:56:26.202Z,1.53
2022-08-07T17:59:01.926Z,1.57
2022-08-07T18:01:50.388Z,1.60
2022-08-07T18:04:34.810Z,1.20
2022-08-07T18:07:24.309Z,1.50
2022-08-07T18:10:07.491Z,1.30
2022-08-07T18:13:01.057Z,1.40
2022-08-07T18:15:43.087Z,1.30
2022-08-07T18:18:45.242Z,1.60
2022-08-07T18:21:51.758Z,1.43
2022-08-07T18:24:51.280Z,1.30
2022-08-07T18:27:40.738Z,1.50
2022-08-07T18:30:32.836Z,1.43
2022-08-07T18:33:26.225Z,1.30
2022-08-07T18:36:08.115Z,1.73
2022-08-07T18:39:01.229Z,1.57
2022-08-07T18:42:04.864Z,1.57
2022-08-07T18:48:07.667Z,1.80
2022-08-07T18:51:01.528Z,1.23
2022-08-07T18:53:54.040Z,1.20
2022-08-07T18:57:23.337Z,1.30
2022-08-07T19:00:32.759Z,1.30
2022-08-07T19:03:12.065Z,1.37
2022-08-07T19:06:03.466Z,1.40
2022-08-07T19:08:47.068Z,1.30
2022-08-07T19:11:36.639Z,1.40
2022-08-07T19:14:20.121Z,1.27
2022-08-07T19:17:09.325Z,1.20
2022-08-07T19:20:00.003Z,1.60
2022-08-07T19:22:32.233Z,1.40
2022-08-07T19:25:07.828Z,1.30
2022-08-07T19:28:57.179Z,1.23
2022-08-07T19:31:03.995Z,1.30
2022-08-07T19:33:33.333Z,1.30
2022-08-07T19:36:08.664Z,1.23
2022-08-07T19:38:52.612Z,1.10
2022-08-07T19:41:44.404Z,1.37
2022-08-07T19:44:31.443Z,1.40
2022-08-07T19:47:07.655Z,1.20
2022-08-07T19:49:58.454Z,1.30
2022-08-07T19:52:37.849Z,1.30
2022-08-07T19:55:22.723Z,1.30
2022-08-07T19:58:04.425Z,1.10
2022-08-07T20:00:57.547Z,1.20
2022-08-07T20:03:34.482Z,1.30
2022-08-07T20:06:04.920Z,1.20
2022-08-07T20:12:01.075Z,1.10
2022-08-07T20:14:23.267Z,1.20
2022-08-07T20:19:58.629Z,1.20
2022-08-07T20:22:33.891Z,1.30
2022-08-07T20:25:12.860Z,1.20
2022-08-07T20:28:03.490Z,1.20
2022-08-07T20:33:37.621Z,1.10
2022-08-07T20:36:10.476Z,1.50
2022-08-07T20:38:59.310Z,1.40
2022-08-07T20:41:34.058Z,1.30
2022-08-07T20:44:12.516Z,1.50
2022-08-07T20:46:44.723Z,1.50
2022-08-07T20:50:00.721Z,1.23
2022-08-07T20:52:29.974Z,1.37
2022-08-07T20:55:16.502Z,1.27
2022-08-07T20:58:02.533Z,1.47
2022-08-07T21:00:48.566Z,1.17
2022-08-07T21:03:26.024Z,1.30
2022-08-07T21:06:21.394Z,1.40
2022-08-07T21:09:15.530Z,1.30
2022-08-07T21:11:50.934Z,1.30
2022-08-07T21:14:32.828Z,1.40
2022-08-07T21:18:06.160Z,1.37
2022-08-07T21:20:18.925Z,1.50
2022-08-07T21:23:07.692Z,1.40
2022-08-07T21:25:43.971Z,1.50
2022-08-07T21:28:48.281Z,1.10
2022-08-07T21:32:10.869Z,1.40
2022-08-07T21:34:46.003Z,1.20
2022-08-07T21:37:57.898Z,1.33
2022-08-07T21:40:42.869Z,1.33
2022-08-07T21:43:13.515Z,1.40
2022-08-07T21:46:24.726Z,1.30
2022-08-07T21:49:17.349Z,1.30
2022-08-07T21:52:11.637Z,1.33
2022-08-07T21:54:59.237Z,1.20
2022-08-07T21:57:52.029Z,1.33
2022-08-07T22:00:28.174Z,1.20
2022-08-07T22:03:17.238Z,1.20
2022-08-07T22:06:07.002Z,1.20
2022-08-07T22:09:00.788Z,1.20
2022-08-07T22:12:05.392Z,1.33
2022-08-07T22:14:34.954Z,1.37
2022-08-07T22:20:04.463Z,1.30
2022-08-07T22:23:05.568Z,1.23
2022-08-07T22:25:36.721Z,1.20
2022-08-07T22:28:38.284Z,1.30
2022-08-07T22:31:45.365Z,1.30
2022-08-07T22:34:12.930Z,1.33
2022-08-07T22:37:01.400Z,1.30
2022-08-07T22:39:52.924Z,1.37
2022-08-07T22:42:32.992Z,1.30
2022-08-07T22:45:11.163Z,1.40
2022-08-07T22:48:31.480Z,1.17
2022-08-07T22:54:06.377Z,1.40
2022-08-07T22:57:02.579Z,1.20
2022-08-07T22:59:58.550Z,1.20
2022-08-07T23:02:35.797Z,1.20
2022-08-07T23:06:08.566Z,1.20
2022-08-07T23:08:38.144Z,1.00
2022-08-07T23:11:34.997Z,1.30
2022-08-07T23:14:18.513Z,1.60
2022-08-07T23:17:08.658Z,1.13
2022-08-07T23:20:21.559Z,1.30
2022-08-07T23:24:05.567Z,1.30
2022-08-07T23:26:32.866Z,1.23
2022-08-07T23:30:35.309Z,1.20
2022-08-07T23:34:23.251Z,1.37
2022-08-07T23:35:29.651Z,1.07
2022-08-07T23:38:42.762Z,1.47
2022-08-07T23:41:33.555Z,1.30
2022-08-07T23:44:05.555Z,1.20
2022-08-07T23:47:02.561Z,1.10
2022-08-07T23:50:11.896Z,1.50
2022-08-07T23:52:53.983Z,1.20
2022-08-07T23:55:58.855Z,1.47
2022-08-07T23:58:37.498Z,1.30
